Time;durP1;ratioP1;P1;durP2;ratioP2;P2;SDS_P1;SDS_P2;PMS_P1;PMS_P2;Temp;Humidity;BMP_temperature;BMP_pressure;BME280_temperature;BME280_humidity;BME280_pressure;Samples;Min_cycle;Max_cycle;Signal;HPM_P1;HPM_P2
2022/10/25 00:02:36;;;;;;;11.75;3.58;;;17.10;71.20;;;;;;21163300;28;20051;-62
2022/10/25 00:12:43;;;;;;;9.45;3.00;;;16.90;71.70;;;;;;21162602;28;20051;-63
2022/10/25 00:22:45;;;;;;;5.22;2.20;;;16.90;72.20;;;;;;21162076;28;20047;-64
2022/10/25 00:32:47;;;;;;;7.10;2.58;;;16.90;72.10;;;;;;21161340;28;20051;-63
2022/10/25 00:42:48;;;;;;;6.57;3.47;;;16.80;72.50;;;;;;21160750;28;20047;-64
2022/10/25 00:52:55;;;;;;;4.95;2.35;;;16.60;72.90;;;;;;21163494;28;20057;-62
2022/10/25 01:02:57;;;;;;;7.40;2.08;;;16.50;73.20;;;;;;21175172;28;20505;-61
2022/10/25 01:13:00;;;;;;;9.20;3.10;;;16.40;73.50;;;;;;21158037;28;20392;-62
2022/10/25 01:23:14;;;;;;;9.05;2.38;;;16.40;73.80;;;;;;21173569;28;20454;-62
2022/10/25 01:33:29;;;;;;;8.73;3.38;;;16.30;73.90;;;;;;21173845;28;20052;-65
2022/10/25 01:43:38;;;;;;;6.28;2.63;;;16.30;74.00;;;;;;21172411;28;20087;-60
2022/10/25 01:53:49;;;;;;;5.45;1.88;;;16.20;73.80;;;;;;21171266;28;20096;-63
2022/10/25 02:03:58;;;;;;;5.68;2.20;;;16.20;73.70;;;;;;21171166;28;20510;-63
2022/10/25 02:14:17;;;;;;;5.43;2.75;;;16.10;73.90;;;;;;21171529;28;20443;-61
2022/10/25 02:24:25;;;;;;;5.68;2.58;;;16.10;73.60;;;;;;21168647;28;20130;-62
2022/10/25 02:34:27;;;;;;;5.43;2.03;;;16.10;73.40;;;;;;21167893;28;20047;-62
2022/10/25 02:44:30;;;;;;;10.43;2.95;;;16.10;73.70;;;;;;21167015;28;20407;-64
2022/10/25 02:54:32;;;;;;;11.52;2.80;;;16.00;73.60;;;;;;21167108;28;20051;-62
2022/10/25 03:04:35;;;;;;;6.78;2.53;;;16.00;73.20;;;;;;21166300;28;20117;-61
2022/10/25 03:14:38;;;;;;;6.68;2.58;;;16.00;73.00;;;;;;21164549;28;20047;-63
2022/10/25 03:24:40;;;;;;;9.20;3.95;;;16.00;72.80;;;;;;21164041;28;20040;-64
2022/10/25 03:34:42;;;;;;;7.57;2.60;;;16.00;72.80;;;;;;21164772;28;20427;-63
2022/10/25 03:44:45;;;;;;;6.13;2.58;;;16.00;73.10;;;;;;21163251;28;20483;-63
2022/10/25 03:54:46;;;;;;;7.97;2.80;;;16.00;73.10;;;;;;21162766;28;20047;-64
2022/10/25 04:04:48;;;;;;;8.00;3.47;;;16.10;72.90;;;;;;21162343;28;20431;-65
2022/10/25 04:14:51;;;;;;;5.38;2.88;;;16.10;72.90;;;;;;21162104;28;20047;-64
2022/10/25 04:24:54;;;;;;;7.47;3.20;;;16.10;72.70;;;;;;21162104;28;20048;-65
2022/10/25 04:34:55;;;;;;;11.93;5.60;;;16.10;72.50;;;;;;21176015;28;20083;-63
2022/10/25 04:44:58;;;;;;;11.48;3.92;;;16.00;72.90;;;;;;21177188;28;20491;-62
2022/10/25 04:55:00;;;;;;;8.95;3.20;;;16.00;73.10;;;;;;21176425;28;20082;-61
2022/10/25 05:05:03;;;;;;;9.20;3.80;;;16.00;72.70;;;;;;21175673;28;20134;-64
2022/10/25 05:15:06;;;;;;;7.32;3.25;;;15.90;73.20;;;;;;21174293;28;20048;-64
2022/10/25 05:25:08;;;;;;;8.32;4.00;;;15.90;73.60;;;;;;21173637;28;20055;-61
2022/10/25 05:35:12;;;;;;;12.65;4.03;;;15.80;74.20;;;;;;21174170;28;20068;-61
2022/10/25 05:45:13;;;;;;;9.00;3.63;;;15.80;73.90;;;;;;21152904;28;20093;-65
2022/10/25 05:55:15;;;;;;;11.88;3.92;;;15.80;73.30;;;;;;21172398;28;20055;-61
2022/10/25 06:05:17;;;;;;;6.75;3.35;;;15.90;73.10;;;;;;21170295;28;20078;-61
2022/10/25 06:15:19;;;;;;;10.35;4.00;;;15.80;72.90;;;;;;21169960;28;20083;-61
2022/10/25 06:25:21;;;;;;;8.32;3.70;;;15.80;73.20;;;;;;21168446;28;20132;-61
2022/10/25 06:35:23;;;;;;;9.50;3.58;;;15.90;72.90;;;;;;21168044;28;20048;-61
2022/10/25 06:45:25;;;;;;;10.27;4.03;;;16.00;71.90;;;;;;21167973;28;20429;-64
2022/10/25 06:55:27;;;;;;;7.90;2.92;;;16.00;71.20;;;;;;21166191;28;20044;-65
2022/10/25 07:05:29;;;;;;;7.10;3.28;;;16.10;70.30;;;;;;21166477;28;20070;-61
2022/10/25 07:15:30;;;;;;;10.55;3.90;;;16.20;69.80;;;;;;21166058;28;20051;-59
2022/10/25 07:25:32;;;;;;;10.77;3.70;;;16.20;69.30;;;;;;21164175;28;20047;-62
2022/10/25 07:35:34;;;;;;;12.27;4.32;;;16.30;69.50;;;;;;21163558;28;20051;-62
2022/10/25 07:45:38;;;;;;;12.02;3.92;;;16.40;70.10;;;;;;21163386;28;20054;-63
2022/10/25 07:55:39;;;;;;;11.60;4.28;;;16.30;70.30;;;;;;21162530;28;20055;-62
2022/10/25 08:05:45;;;;;;;12.80;4.53;;;16.40;70.30;;;;;;21175512;28;20101;-62
2022/10/25 08:15:51;;;;;;;12.30;3.78;;;16.50;70.10;;;;;;21179439;28;20092;-62
2022/10/25 08:25:52;;;;;;;8.07;3.33;;;16.60;69.40;;;;;;21179671;28;20504;-65
2022/10/25 08:35:54;;;;;;;9.82;3.53;;;16.90;68.10;;;;;;21177381;28;20051;-62
2022/10/25 08:46:24;;;;;;;17.67;4.45;;;17.00;67.20;;;;;;21176666;28;20052;-61
2022/10/25 08:56:27;;;;;;;10.38;3.53;;;17.30;66.50;;;;;;21158698;28;20047;-63
2022/10/25 09:06:42;;;;;;;14.73;3.40;;;17.50;64.90;;;;;;21158131;28;20525;-61
2022/10/25 09:16:50;;;;;;;11.40;3.25;;;17.70;63.00;;;;;;21173412;28;20047;-72
2022/10/25 09:27:20;;;;;;;14.98;3.83;;;18.50;61.00;;;;;;21173088;28;20058;-62
2022/10/25 09:37:39;;;;;;;11.38;3.63;;;18.60;60.50;;;;;;21172887;28;20047;-64
2022/10/25 09:47:52;;;;;;;21.52;5.05;;;18.60;59.30;;;;;;21171049;28;20052;-62
2022/10/25 09:57:54;;;;;;;11.50;4.50;;;19.00;58.70;;;;;;21171047;28;20051;-74
2022/10/25 10:07:56;;;;;;;12.68;4.03;;;19.20;57.50;;;;;;21171710;28;20048;-68
2022/10/25 10:18:25;;;;;;;16.13;5.80;;;19.60;57.60;;;;;;21171144;28;20044;-70
2022/10/25 10:28:27;;;;;;;13.88;4.78;;;19.90;55.80;;;;;;21167951;28;20055;-63
2022/10/25 10:38:29;;;;;;;16.33;4.38;;;19.90;52.40;;;;;;21172924;28;20055;-70
2022/10/25 10:48:34;;;;;;;11.82;4.38;;;20.00;51.70;;;;;;21174113;28;20441;-67
2022/10/25 10:58:38;;;;;;;13.57;4.60;;;20.00;49.60;;;;;;21166034;28;20053;-64
2022/10/25 11:08:46;;;;;;;15.27;4.18;;;20.10;49.30;;;;;;21164718;28;20044;-60
2022/10/25 11:19:06;;;;;;;12.30;3.88;;;20.30;49.30;;;;;;21164852;28;20047;-64
2022/10/25 11:29:26;;;;;;;19.52;4.70;;;20.40;48.40;;;;;;21164849;28;20071;-64
2022/10/25 11:39:46;;;;;;;12.98;3.75;;;20.80;48.20;;;;;;21165174;28;20050;-67
2022/10/25 11:50:01;;;;;;;14.35;4.63;;;20.80;47.60;;;;;;21178900;28;20069;-62
2022/10/25 12:00:02;;;;;;;22.92;8.98;;;20.90;47.80;;;;;;21163950;28;20052;-62
2022/10/25 12:10:24;;;;;;;11.25;4.68;;;20.80;48.40;;;;;;21161911;28;20071;-62
2022/10/25 12:20:28;;;;;;;18.55;4.50;;;21.00;48.00;;;;;;21162031;28;20051;-66
2022/10/25 12:30:32;;;;;;;10.73;4.07;;;21.30;46.90;;;;;;21162022;28;20348;-68
2022/10/25 12:40:43;;;;;;;16.08;4.20;;;21.40;46.60;;;;;;21161843;28;20100;-69
2022/10/25 12:51:00;;;;;;;13.80;5.60;;;21.60;45.70;;;;;;21166806;28;20048;-69
2022/10/25 13:01:23;;;;;;;14.75;3.60;;;22.00;45.70;;;;;;21176284;28;20070;-62
2022/10/25 13:11:41;;;;;;;11.48;3.53;;;22.30;41.50;;;;;;21175624;28;20047;-66
2022/10/25 13:21:52;;;;;;;19.75;4.47;;;22.60;39.70;;;;;;21176219;28;20479;-70
2022/10/25 13:32:04;;;;;;;12.32;3.60;;;22.80;39.10;;;;;;21173944;28;20103;-70
2022/10/25 13:42:16;;;;;;;14.07;3.30;;;22.90;38.60;;;;;;21173013;28;20132;-68
2022/10/25 13:52:30;;;;;;;13.02;3.92;;;23.10;36.90;;;;;;21174129;28;20048;-62
2022/10/25 14:03:07;;;;;;;12.20;3.42;;;23.20;36.20;;;;;;21175972;28;20058;-61
2022/10/25 14:13:20;;;;;;;15.25;3.97;;;23.10;36.50;;;;;;21178014;28;20054;-70
2022/10/25 14:23:28;;;;;;;13.57;4.25;;;23.10;36.40;;;;;;21167225;28;20044;-66
2022/10/25 14:33:49;;;;;;;11.25;3.38;;;23.30;36.00;;;;;;21146314;28;20476;-63
2022/10/25 14:43:52;;;;;;;13.30;4.65;;;23.60;35.90;;;;;;21163992;28;20055;-65
2022/10/25 14:53:57;;;;;;;13.65;4.57;;;23.50;35.90;;;;;;21164417;28;20051;-67
2022/10/25 15:04:00;;;;;;;11.48;3.58;;;23.40;36.30;;;;;;21162117;28;20051;-63
2022/10/25 15:14:14;;;;;;;14.13;4.03;;;23.40;37.00;;;;;;21160195;28;20063;-63
2022/10/25 15:24:23;;;;;;;10.38;3.75;;;23.20;37.90;;;;;;21160000;28;20163;-60
2022/10/25 15:34:25;;;;;;;11.73;3.70;;;23.10;38.80;;;;;;21160110;28;20055;-61
2022/10/25 15:44:27;;;;;;;13.98;4.22;;;22.90;39.80;;;;;;21158653;28;20123;-69
2022/10/25 15:54:28;;;;;;;10.97;4.30;;;22.90;40.70;;;;;;21160180;28;20051;-70
2022/10/25 16:04:30;;;;;;;13.20;3.42;;;22.80;41.00;;;;;;21157726;28;20176;-63
2022/10/25 16:14:33;;;;;;;11.02;4.82;;;22.70;41.40;;;;;;21158039;28;20048;-73
2022/10/25 16:24:35;;;;;;;14.88;3.50;;;22.60;41.80;;;;;;21165294;28;20047;-73
2022/10/25 16:34:37;;;;;;;11.48;3.45;;;22.50;41.90;;;;;;21174980;28;20403;-72
2022/10/25 16:44:38;;;;;;;13.38;4.32;;;22.30;42.30;;;;;;21173998;28;20059;-64
2022/10/25 16:54:39;;;;;;;15.88;4.40;;;22.10;43.40;;;;;;21105262;28;20040;-72
2022/10/25 17:04:41;;;;;;;9.55;3.65;;;22.00;44.20;;;;;;21084798;28;20044;-57
2022/10/25 17:14:42;;;;;;;12.02;4.22;;;21.90;44.40;;;;;;21084821;28;20062;-65
2022/10/25 17:24:44;;;;;;;14.82;6.70;;;21.90;46.60;;;;;;21083150;28;20048;-62
2022/10/25 17:34:46;;;;;;;18.70;7.80;;;21.60;45.90;;;;;;21083664;28;20048;-63
2022/10/25 17:44:48;;;;;;;9.40;3.88;;;21.60;47.10;;;;;;21082510;28;20056;-62
2022/10/25 17:54:51;;;;;;;12.47;5.07;;;21.50;50.70;;;;;;21083719;28;20177;-61
2022/10/25 18:04:52;;;;;;;15.25;5.35;;;21.60;50.70;;;;;;21154138;28;20171;-68
2022/10/25 18:14:53;;;;;;;16.15;5.57;;;21.40;48.20;;;;;;21169451;28;20051;-67
2022/10/25 18:24:55;;;;;;;18.48;6.40;;;21.30;48.20;;;;;;21168632;28;20047;-64
2022/10/25 18:34:56;;;;;;;13.93;6.18;;;21.10;48.90;;;;;;21167767;28;20044;-65
2022/10/25 18:44:57;;;;;;;17.30;6.63;;;21.00;49.30;;;;;;21165945;28;20048;-66
2022/10/25 18:54:59;;;;;;;13.57;5.78;;;20.80;50.30;;;;;;21166603;28;20048;-64
2022/10/25 19:05:00;;;;;;;15.90;6.70;;;20.70;50.90;;;;;;21166120;28;20043;-65
2022/10/25 19:15:01;;;;;;;14.10;7.38;;;20.60;51.50;;;;;;21165697;28;20092;-64
2022/10/25 19:25:04;;;;;;;13.15;6.20;;;20.40;52.30;;;;;;21164987;28;20050;-63
2022/10/25 19:35:05;;;;;;;11.50;5.65;;;20.40;52.80;;;;;;21164141;28;20047;-65
2022/10/25 19:45:07;;;;;;;21.08;11.68;;;20.40;53.50;;;;;;21164647;28;20491;-64
2022/10/25 19:55:09;;;;;;;19.63;8.52;;;20.30;54.20;;;;;;21163067;28;20052;-64
2022/10/25 20:05:10;;;;;;;15.27;7.07;;;20.20;54.60;;;;;;21189412;28;20581;-63
2022/10/25 20:15:15;;;;;;;14.43;8.15;;;20.10;55.30;;;;;;21172076;28;20108;-61
2022/10/25 20:25:16;;;;;;;20.90;9.20;;;19.90;55.80;;;;;;21191076;28;20127;-65
2022/10/25 20:35:18;;;;;;;17.85;8.13;;;19.80;56.50;;;;;;21190803;28;20047;-61
2022/10/25 20:45:19;;;;;;;17.67;6.88;;;19.70;56.50;;;;;;21188876;28;20047;-63
2022/10/25 20:55:21;;;;;;;18.73;7.38;;;19.50;57.30;;;;;;21189871;28;20130;-65
2022/10/25 21:05:23;;;;;;;18.05;7.32;;;19.50;57.50;;;;;;21190190;28;20047;-64
2022/10/25 21:15:25;;;;;;;14.27;7.07;;;19.50;57.70;;;;;;21178586;28;20052;-60
2022/10/25 21:25:26;;;;;;;18.60;8.00;;;19.40;58.30;;;;;;21176280;28;20134;-62
2022/10/25 21:35:28;;;;;;;16.75;7.90;;;19.30;58.90;;;;;;21155957;28;20056;-60
2022/10/25 21:45:30;;;;;;;15.77;7.70;;;19.20;59.30;;;;;;21172736;28;20044;-60
2022/10/25 21:55:32;;;;;;;18.52;7.55;;;19.00;59.80;;;;;;21172802;28;20130;-64
2022/10/25 22:05:33;;;;;;;15.80;7.25;;;19.00;60.10;;;;;;21152913;28;20048;-62
2022/10/25 22:15:35;;;;;;;12.80;6.70;;;19.10;60.60;;;;;;21170720;28;20048;-61
2022/10/25 22:25:36;;;;;;;16.45;6.72;;;18.90;61.10;;;;;;21169648;28;20047;-63
2022/10/25 22:35:39;;;;;;;15.02;6.55;;;18.80;61.50;;;;;;21168876;28;20158;-64
2022/10/25 22:45:40;;;;;;;14.73;6.70;;;18.80;61.60;;;;;;21167653;28;20495;-66
2022/10/25 22:55:42;;;;;;;18.52;7.53;;;18.80;61.70;;;;;;21166986;28;20093;-65
2022/10/25 23:05:43;;;;;;;22.45;8.15;;;18.70;62.30;;;;;;21167451;28;20462;-66
2022/10/25 23:15:45;;;;;;;18.25;7.30;;;18.70;62.60;;;;;;21165631;28;20411;-63
2022/10/25 23:25:47;;;;;;;14.57;6.45;;;18.80;62.80;;;;;;21165301;28;20040;-65
2022/10/25 23:35:48;;;;;;;17.48;7.13;;;18.70;62.80;;;;;;21165788;28;20138;-62
2022/10/25 23:45:50;;;;;;;14.82;6.45;;;18.60;62.90;;;;;;21163751;28;20055;-60
2022/10/25 23:55:53;;;;;;;16.50;6.78;;;18.60;62.70;;;;;;21164187;28;20070;-62
